sensor_id;sensor_type;location;lat;lon;timestamp;pressure;altitude;pressure_sealevel;temperature;humidity
62928;BME280;51070;52.236;-0.892;2022-07-09T00:01:00;102297.30;;;18.66;58.47
62928;BME280;51070;52.236;-0.892;2022-07-09T00:03:25;102296.67;;;18.62;58.87
62928;BME280;51070;52.236;-0.892;2022-07-09T00:05:51;102294.13;;;18.58;58.83
62928;BME280;51070;52.236;-0.892;2022-07-09T00:08:16;102297.08;;;18.57;58.80
62928;BME280;51070;52.236;-0.892;2022-07-09T00:10:42;102295.77;;;18.54;59.47
62928;BME280;51070;52.236;-0.892;2022-07-09T00:13:07;102294.64;;;18.52;59.26
62928;BME280;51070;52.236;-0.892;2022-07-09T00:15:32;102296.48;;;18.49;59.44
62928;BME280;51070;52.236;-0.892;2022-07-09T00:17:58;102296.94;;;18.45;59.47
62928;BME280;51070;52.236;-0.892;2022-07-09T00:20:24;102297.21;;;18.43;59.41
62928;BME280;51070;52.236;-0.892;2022-07-09T00:22:50;102297.33;;;18.40;59.58
62928;BME280;51070;52.236;-0.892;2022-07-09T00:25:16;102298.20;;;18.40;59.80
62928;BME280;51070;52.236;-0.892;2022-07-09T00:27:41;102292.98;;;18.41;59.88
62928;BME280;51070;52.236;-0.892;2022-07-09T00:30:08;102291.43;;;18.42;59.91
62928;BME280;51070;52.236;-0.892;2022-07-09T00:32:33;102284.48;;;18.44;59.98
62928;BME280;51070;52.236;-0.892;2022-07-09T00:34:59;102288.02;;;18.45;60.03
62928;BME280;51070;52.236;-0.892;2022-07-09T00:37:24;102299.94;;;18.46;60.07
62928;BME280;51070;52.236;-0.892;2022-07-09T00:39:50;102301.86;;;18.46;60.09
62928;BME280;51070;52.236;-0.892;2022-07-09T00:42:15;102302.90;;;18.45;60.22
62928;BME280;51070;52.236;-0.892;2022-07-09T00:44:41;102303.00;;;18.43;60.40
62928;BME280;51070;52.236;-0.892;2022-07-09T00:47:07;102301.85;;;18.39;60.57
62928;BME280;51070;52.236;-0.892;2022-07-09T00:49:39;102301.73;;;18.35;60.65
62928;BME280;51070;52.236;-0.892;2022-07-09T00:52:08;102300.80;;;18.32;60.64
62928;BME280;51070;52.236;-0.892;2022-07-09T00:54:34;102300.94;;;18.30;60.84
62928;BME280;51070;52.236;-0.892;2022-07-09T00:57:03;102303.27;;;18.26;61.18
62928;BME280;51070;52.236;-0.892;2022-07-09T00:59:32;102302.93;;;18.20;61.21
62928;BME280;51070;52.236;-0.892;2022-07-09T01:02:00;102302.20;;;18.18;61.31
62928;BME280;51070;52.236;-0.892;2022-07-09T01:04:25;102298.66;;;18.17;61.58
62928;BME280;51070;52.236;-0.892;2022-07-09T01:06:51;102294.59;;;18.09;61.67
62928;BME280;51070;52.236;-0.892;2022-07-09T01:09:16;102295.63;;;18.01;62.01
62928;BME280;51070;52.236;-0.892;2022-07-09T01:11:42;102296.21;;;17.97;62.16
62928;BME280;51070;52.236;-0.892;2022-07-09T01:14:08;102296.02;;;17.96;62.25
62928;BME280;51070;52.236;-0.892;2022-07-09T01:16:36;102297.95;;;17.96;62.27
62928;BME280;51070;52.236;-0.892;2022-07-09T01:19:03;102292.86;;;17.96;62.31
62928;BME280;51070;52.236;-0.892;2022-07-09T01:21:29;102291.80;;;17.96;62.45
62928;BME280;51070;52.236;-0.892;2022-07-09T01:23:55;102292.80;;;17.94;62.60
62928;BME280;51070;52.236;-0.892;2022-07-09T01:26:23;102291.33;;;17.91;62.78
62928;BME280;51070;52.236;-0.892;2022-07-09T01:28:49;102292.87;;;17.84;63.10
62928;BME280;51070;52.236;-0.892;2022-07-09T01:31:16;102290.61;;;17.78;63.24
62928;BME280;51070;52.236;-0.892;2022-07-09T01:33:41;102289.14;;;17.75;63.29
62928;BME280;51070;52.236;-0.892;2022-07-09T01:36:07;102279.77;;;17.72;63.46
62928;BME280;51070;52.236;-0.892;2022-07-09T01:38:33;102277.46;;;17.71;63.64
62928;BME280;51070;52.236;-0.892;2022-07-09T01:40:59;102278.71;;;17.65;63.69
62928;BME280;51070;52.236;-0.892;2022-07-09T01:43:25;102275.98;;;17.61;63.87
62928;BME280;51070;52.236;-0.892;2022-07-09T01:45:50;102271.85;;;17.58;63.96
62928;BME280;51070;52.236;-0.892;2022-07-09T01:48:15;102276.00;;;17.57;64.05
62928;BME280;51070;52.236;-0.892;2022-07-09T01:50:41;102276.77;;;17.52;64.26
62928;BME280;51070;52.236;-0.892;2022-07-09T01:53:07;102273.98;;;17.47;64.53
62928;BME280;51070;52.236;-0.892;2022-07-09T01:55:33;102269.65;;;17.42;64.61
62928;BME280;51070;52.236;-0.892;2022-07-09T01:57:58;102268.38;;;17.41;64.68
62928;BME280;51070;52.236;-0.892;2022-07-09T02:00:24;102270.98;;;17.41;64.73
62928;BME280;51070;52.236;-0.892;2022-07-09T02:02:49;102270.71;;;17.37;64.97
62928;BME280;51070;52.236;-0.892;2022-07-09T02:05:15;102270.67;;;17.36;64.93
62928;BME280;51070;52.236;-0.892;2022-07-09T02:07:40;102269.02;;;17.33;65.26
62928;BME280;51070;52.236;-0.892;2022-07-09T02:10:06;102269.35;;;17.26;65.36
62928;BME280;51070;52.236;-0.892;2022-07-09T02:12:32;102270.97;;;17.22;65.71
62928;BME280;51070;52.236;-0.892;2022-07-09T02:14:58;102269.40;;;17.22;65.56
62928;BME280;51070;52.236;-0.892;2022-07-09T02:17:23;102272.94;;;17.24;65.61
62928;BME280;51070;52.236;-0.892;2022-07-09T02:19:49;102270.34;;;17.24;65.58
62928;BME280;51070;52.236;-0.892;2022-07-09T02:22:14;102265.58;;;17.23;65.79
62928;BME280;51070;52.236;-0.892;2022-07-09T02:24:40;102265.21;;;17.22;65.75
62928;BME280;51070;52.236;-0.892;2022-07-09T02:27:06;102260.61;;;17.20;65.88
62928;BME280;51070;52.236;-0.892;2022-07-09T02:29:31;102261.09;;;17.19;65.98
62928;BME280;51070;52.236;-0.892;2022-07-09T02:31:57;102258.70;;;17.20;65.91
62928;BME280;51070;52.236;-0.892;2022-07-09T02:34:23;102255.09;;;17.23;65.91
62928;BME280;51070;52.236;-0.892;2022-07-09T02:36:50;102249.33;;;17.23;66.03
62928;BME280;51070;52.236;-0.892;2022-07-09T02:39:16;102250.50;;;17.20;66.15
62928;BME280;51070;52.236;-0.892;2022-07-09T02:41:42;102246.45;;;17.19;66.15
62928;BME280;51070;52.236;-0.892;2022-07-09T02:44:07;102245.11;;;17.22;66.05
62928;BME280;51070;52.236;-0.892;2022-07-09T02:46:33;102248.42;;;17.21;66.05
62928;BME280;51070;52.236;-0.892;2022-07-09T02:48:58;102251.38;;;17.21;66.15
62928;BME280;51070;52.236;-0.892;2022-07-09T02:51:24;102247.10;;;17.18;66.26
62928;BME280;51070;52.236;-0.892;2022-07-09T02:53:49;102246.70;;;17.16;66.36
62928;BME280;51070;52.236;-0.892;2022-07-09T02:56:15;102245.02;;;17.12;66.22
62928;BME280;51070;52.236;-0.892;2022-07-09T02:58:40;102250.36;;;17.10;66.36
62928;BME280;51070;52.236;-0.892;2022-07-09T03:01:06;102249.11;;;17.09;66.48
62928;BME280;51070;52.236;-0.892;2022-07-09T03:03:32;102254.14;;;17.08;66.54
62928;BME280;51070;52.236;-0.892;2022-07-09T03:06:01;102253.10;;;17.08;66.61
62928;BME280;51070;52.236;-0.892;2022-07-09T03:08:27;102253.45;;;17.08;66.64
62928;BME280;51070;52.236;-0.892;2022-07-09T03:10:53;102250.81;;;17.08;66.66
62928;BME280;51070;52.236;-0.892;2022-07-09T03:13:20;102252.70;;;17.07;66.66
62928;BME280;51070;52.236;-0.892;2022-07-09T03:15:45;102256.51;;;17.05;66.67
62928;BME280;51070;52.236;-0.892;2022-07-09T03:18:11;102257.11;;;17.02;66.75
62928;BME280;51070;52.236;-0.892;2022-07-09T03:20:37;102256.00;;;17.00;66.85
62928;BME280;51070;52.236;-0.892;2022-07-09T03:23:04;102258.09;;;16.94;66.96
62928;BME280;51070;52.236;-0.892;2022-07-09T03:25:30;102258.28;;;16.89;67.00
62928;BME280;51070;52.236;-0.892;2022-07-09T03:27:55;102257.30;;;16.86;66.99
62928;BME280;51070;52.236;-0.892;2022-07-09T03:30:21;102260.20;;;16.83;67.08
62928;BME280;51070;52.236;-0.892;2022-07-09T03:32:49;102257.07;;;16.78;67.22
62928;BME280;51070;52.236;-0.892;2022-07-09T03:35:15;102256.13;;;16.76;67.56
62928;BME280;51070;52.236;-0.892;2022-07-09T03:37:40;102257.65;;;16.75;67.54
62928;BME280;51070;52.236;-0.892;2022-07-09T03:40:06;102257.29;;;16.74;67.59
62928;BME280;51070;52.236;-0.892;2022-07-09T03:42:32;102258.12;;;16.72;67.62
62928;BME280;51070;52.236;-0.892;2022-07-09T03:44:57;102254.64;;;16.73;67.64
62928;BME280;51070;52.236;-0.892;2022-07-09T03:47:23;102253.05;;;16.72;67.79
62928;BME280;51070;52.236;-0.892;2022-07-09T03:49:49;102253.41;;;16.72;67.73
62928;BME280;51070;52.236;-0.892;2022-07-09T03:52:14;102253.38;;;16.71;67.74
62928;BME280;51070;52.236;-0.892;2022-07-09T03:54:40;102253.64;;;16.69;67.83
62928;BME280;51070;52.236;-0.892;2022-07-09T03:57:05;102254.58;;;16.65;67.89
62928;BME280;51070;52.236;-0.892;2022-07-09T03:59:31;102256.05;;;16.62;68.13
62928;BME280;51070;52.236;-0.892;2022-07-09T04:01:56;102258.95;;;16.60;68.18
62928;BME280;51070;52.236;-0.892;2022-07-09T04:04:22;102260.85;;;16.60;68.15
62928;BME280;51070;52.236;-0.892;2022-07-09T04:06:47;102260.52;;;16.60;68.22
62928;BME280;51070;52.236;-0.892;2022-07-09T04:09:12;102258.42;;;16.60;68.19
62928;BME280;51070;52.236;-0.892;2022-07-09T04:11:38;102257.37;;;16.60;68.22
62928;BME280;51070;52.236;-0.892;2022-07-09T04:14:03;102259.13;;;16.60;68.28
62928;BME280;51070;52.236;-0.892;2022-07-09T04:16:29;102261.98;;;16.62;68.16
62928;BME280;51070;52.236;-0.892;2022-07-09T04:18:55;102258.13;;;16.62;68.23
62928;BME280;51070;52.236;-0.892;2022-07-09T04:21:21;102257.55;;;16.60;68.28
62928;BME280;51070;52.236;-0.892;2022-07-09T04:23:50;102258.06;;;16.60;68.31
62928;BME280;51070;52.236;-0.892;2022-07-09T04:26:16;102256.18;;;16.61;68.30
62928;BME280;51070;52.236;-0.892;2022-07-09T04:28:47;102258.30;;;16.62;68.34
62928;BME280;51070;52.236;-0.892;2022-07-09T04:31:12;102254.63;;;16.61;68.37
62928;BME280;51070;52.236;-0.892;2022-07-09T04:33:38;102257.92;;;16.61;68.42
62928;BME280;51070;52.236;-0.892;2022-07-09T04:36:04;102256.16;;;16.60;68.51
62928;BME280;51070;52.236;-0.892;2022-07-09T04:38:30;102256.19;;;16.61;68.52
62928;BME280;51070;52.236;-0.892;2022-07-09T04:40:56;102260.95;;;16.62;68.47
62928;BME280;51070;52.236;-0.892;2022-07-09T04:43:21;102258.35;;;16.64;68.46
62928;BME280;51070;52.236;-0.892;2022-07-09T04:45:47;102257.88;;;16.65;68.46
62928;BME280;51070;52.236;-0.892;2022-07-09T04:48:12;102257.20;;;16.66;68.51
62928;BME280;51070;52.236;-0.892;2022-07-09T04:50:38;102260.10;;;16.64;68.51
62928;BME280;51070;52.236;-0.892;2022-07-09T04:53:03;102264.33;;;16.65;68.48
62928;BME280;51070;52.236;-0.892;2022-07-09T04:55:29;102267.55;;;16.67;68.38
62928;BME280;51070;52.236;-0.892;2022-07-09T04:57:55;102268.05;;;16.72;68.37
62928;BME280;51070;52.236;-0.892;2022-07-09T05:00:21;102270.42;;;16.75;68.45
62928;BME280;51070;52.236;-0.892;2022-07-09T05:02:47;102271.55;;;16.77;68.14
62928;BME280;51070;52.236;-0.892;2022-07-09T05:05:12;102276.06;;;16.77;68.11
62928;BME280;51070;52.236;-0.892;2022-07-09T05:07:39;102281.48;;;16.77;68.20
62928;BME280;51070;52.236;-0.892;2022-07-09T05:10:07;102278.61;;;16.81;68.24
62928;BME280;51070;52.236;-0.892;2022-07-09T05:12:33;102279.52;;;16.87;68.20
62928;BME280;51070;52.236;-0.892;2022-07-09T05:14:58;102283.84;;;16.91;68.06
62928;BME280;51070;52.236;-0.892;2022-07-09T05:17:24;102275.73;;;16.95;67.99
62928;BME280;51070;52.236;-0.892;2022-07-09T05:19:50;102266.64;;;17.00;67.92
62928;BME280;51070;52.236;-0.892;2022-07-09T05:22:16;102270.09;;;17.04;67.92
62928;BME280;51070;52.236;-0.892;2022-07-09T05:24:42;102264.79;;;17.08;67.72
62928;BME280;51070;52.236;-0.892;2022-07-09T05:27:08;102265.77;;;17.11;67.71
62928;BME280;51070;52.236;-0.892;2022-07-09T05:29:36;102265.84;;;17.13;67.63
62928;BME280;51070;52.236;-0.892;2022-07-09T05:32:03;102266.42;;;17.15;67.61
62928;BME280;51070;52.236;-0.892;2022-07-09T05:34:29;102272.55;;;17.15;67.64
62928;BME280;51070;52.236;-0.892;2022-07-09T05:36:55;102277.30;;;17.18;67.62
62928;BME280;51070;52.236;-0.892;2022-07-09T05:39:21;102275.33;;;17.21;67.64
62928;BME280;51070;52.236;-0.892;2022-07-09T05:41:47;102276.08;;;17.29;67.56
62928;BME280;51070;52.236;-0.892;2022-07-09T05:44:14;102274.42;;;17.38;67.52
62928;BME280;51070;52.236;-0.892;2022-07-09T05:46:40;102277.13;;;17.47;67.24
62928;BME280;51070;52.236;-0.892;2022-07-09T05:49:05;102274.25;;;17.56;67.09
62928;BME280;51070;52.236;-0.892;2022-07-09T05:51:32;102273.89;;;17.61;67.25
62928;BME280;51070;52.236;-0.892;2022-07-09T05:53:57;102263.20;;;17.66;67.08
62928;BME280;51070;52.236;-0.892;2022-07-09T05:56:23;102263.31;;;17.71;67.11
62928;BME280;51070;52.236;-0.892;2022-07-09T05:58:48;102259.02;;;17.80;67.04
62928;BME280;51070;52.236;-0.892;2022-07-09T06:01:14;102254.73;;;17.89;66.98
62928;BME280;51070;52.236;-0.892;2022-07-09T06:03:40;102260.81;;;17.95;66.93
62928;BME280;51070;52.236;-0.892;2022-07-09T06:06:06;102269.20;;;18.01;66.86
62928;BME280;51070;52.236;-0.892;2022-07-09T06:08:32;102267.86;;;18.10;66.74
62928;BME280;51070;52.236;-0.892;2022-07-09T06:10:59;102263.41;;;18.20;66.55
62928;BME280;51070;52.236;-0.892;2022-07-09T06:13:25;102266.23;;;18.28;66.36
62928;BME280;51070;52.236;-0.892;2022-07-09T06:15:52;102268.39;;;18.31;66.28
62928;BME280;51070;52.236;-0.892;2022-07-09T06:18:17;102270.23;;;18.34;66.32
62928;BME280;51070;52.236;-0.892;2022-07-09T06:20:43;102274.68;;;18.37;66.28
62928;BME280;51070;52.236;-0.892;2022-07-09T06:23:09;102274.52;;;18.38;66.33
62928;BME280;51070;52.236;-0.892;2022-07-09T06:25:35;102271.95;;;18.40;66.32
62928;BME280;51070;52.236;-0.892;2022-07-09T06:28:01;102271.64;;;18.42;66.21
62928;BME280;51070;52.236;-0.892;2022-07-09T06:30:27;102270.88;;;18.46;66.09
62928;BME280;51070;52.236;-0.892;2022-07-09T06:32:52;102269.73;;;18.50;66.13
62928;BME280;51070;52.236;-0.892;2022-07-09T06:35:17;102271.57;;;18.53;66.10
62928;BME280;51070;52.236;-0.892;2022-07-09T06:37:43;102269.49;;;18.60;66.04
62928;BME280;51070;52.236;-0.892;2022-07-09T06:40:09;102270.52;;;18.66;65.94
62928;BME280;51070;52.236;-0.892;2022-07-09T06:42:34;102270.38;;;18.75;65.96
62928;BME280;51070;52.236;-0.892;2022-07-09T06:45:00;102270.34;;;18.89;65.69
62928;BME280;51070;52.236;-0.892;2022-07-09T06:47:25;102268.86;;;19.02;65.39
62928;BME280;51070;52.236;-0.892;2022-07-09T06:49:51;102267.02;;;19.13;65.05
62928;BME280;51070;52.236;-0.892;2022-07-09T06:52:16;102273.45;;;19.19;64.93
62928;BME280;51070;52.236;-0.892;2022-07-09T06:54:42;102275.52;;;19.26;64.77
62928;BME280;51070;52.236;-0.892;2022-07-09T06:57:07;102274.80;;;19.33;64.73
62928;BME280;51070;52.236;-0.892;2022-07-09T06:59:35;102279.98;;;19.37;64.56
62928;BME280;51070;52.236;-0.892;2022-07-09T07:02:01;102277.27;;;19.42;64.48
62928;BME280;51070;52.236;-0.892;2022-07-09T07:04:27;102281.23;;;19.46;64.40
62928;BME280;51070;52.236;-0.892;2022-07-09T07:06:52;102279.91;;;19.50;64.14
62928;BME280;51070;52.236;-0.892;2022-07-09T07:09:18;102278.33;;;19.50;64.05
62928;BME280;51070;52.236;-0.892;2022-07-09T07:11:45;102282.56;;;19.51;64.06
62928;BME280;51070;52.236;-0.892;2022-07-09T07:14:11;102280.42;;;19.49;64.12
62928;BME280;51070;52.236;-0.892;2022-07-09T07:16:36;102277.10;;;19.49;64.37
62928;BME280;51070;52.236;-0.892;2022-07-09T07:19:02;102279.92;;;19.58;64.24
62928;BME280;51070;52.236;-0.892;2022-07-09T07:21:28;102276.30;;;19.72;63.99
62928;BME280;51070;52.236;-0.892;2022-07-09T07:23:53;102276.66;;;19.91;63.74
62928;BME280;51070;52.236;-0.892;2022-07-09T07:26:19;102277.42;;;20.13;63.21
62928;BME280;51070;52.236;-0.892;2022-07-09T07:28:44;102279.40;;;20.34;62.81
62928;BME280;51070;52.236;-0.892;2022-07-09T07:31:10;102281.09;;;20.63;62.34
62928;BME280;51070;52.236;-0.892;2022-07-09T07:33:35;102281.64;;;20.99;61.51
62928;BME280;51070;52.236;-0.892;2022-07-09T07:36:01;102277.45;;;21.39;60.48
62928;BME280;51070;52.236;-0.892;2022-07-09T07:38:26;102275.82;;;21.65;59.98
62928;BME280;51070;52.236;-0.892;2022-07-09T07:40:56;102276.30;;;21.91;58.84
62928;BME280;51070;52.236;-0.892;2022-07-09T07:43:21;102277.20;;;22.10;58.33
62928;BME280;51070;52.236;-0.892;2022-07-09T07:45:47;102280.64;;;22.21;57.54
62928;BME280;51070;52.236;-0.892;2022-07-09T07:48:12;102281.16;;;22.19;56.99
62928;BME280;51070;52.236;-0.892;2022-07-09T07:50:39;102280.27;;;22.19;56.83
62928;BME280;51070;52.236;-0.892;2022-07-09T07:53:05;102283.15;;;22.26;56.47
62928;BME280;51070;52.236;-0.892;2022-07-09T07:55:32;102287.02;;;22.46;55.83
62928;BME280;51070;52.236;-0.892;2022-07-09T07:57:57;102280.88;;;22.95;54.06
62928;BME280;51070;52.236;-0.892;2022-07-09T08:00:23;102280.52;;;23.83;52.30
62928;BME280;51070;52.236;-0.892;2022-07-09T08:02:49;102281.13;;;24.58;51.14
62928;BME280;51070;52.236;-0.892;2022-07-09T08:05:14;102275.88;;;26.19;48.67
62928;BME280;51070;52.236;-0.892;2022-07-09T08:07:40;102270.83;;;26.10;47.59
62928;BME280;51070;52.236;-0.892;2022-07-09T08:10:06;102270.77;;;25.90;47.07
62928;BME280;51070;52.236;-0.892;2022-07-09T08:12:32;102272.47;;;26.25;46.40
62928;BME280;51070;52.236;-0.892;2022-07-09T08:14:57;102267.53;;;26.81;44.77
62928;BME280;51070;52.236;-0.892;2022-07-09T08:17:23;102264.33;;;27.63;43.14
62928;BME280;51070;52.236;-0.892;2022-07-09T08:19:48;102264.69;;;30.14;39.85
62928;BME280;51070;52.236;-0.892;2022-07-09T08:22:14;102260.52;;;31.89;35.79
62928;BME280;51070;52.236;-0.892;2022-07-09T08:24:39;102266.09;;;32.41;34.80
62928;BME280;51070;52.236;-0.892;2022-07-09T08:27:05;102266.36;;;31.96;33.33
62928;BME280;51070;52.236;-0.892;2022-07-09T08:29:30;102262.15;;;33.48;30.23
62928;BME280;51070;52.236;-0.892;2022-07-09T08:31:56;102256.80;;;33.97;29.63
62928;BME280;51070;52.236;-0.892;2022-07-09T08:34:21;102258.67;;;35.40;27.88
62928;BME280;51070;52.236;-0.892;2022-07-09T08:36:47;102254.23;;;35.81;26.98
62928;BME280;51070;52.236;-0.892;2022-07-09T08:39:12;102247.73;;;35.92;26.42
62928;BME280;51070;52.236;-0.892;2022-07-09T08:41:38;102256.23;;;35.31;26.34
62928;BME280;51070;52.236;-0.892;2022-07-09T08:44:04;102261.03;;;33.49;28.04
62928;BME280;51070;52.236;-0.892;2022-07-09T08:46:32;102258.72;;;31.94;29.73
62928;BME280;51070;52.236;-0.892;2022-07-09T08:48:58;102259.84;;;32.19;29.36
62928;BME280;51070;52.236;-0.892;2022-07-09T08:51:25;102254.69;;;33.38;28.14
62928;BME280;51070;52.236;-0.892;2022-07-09T08:53:53;102252.66;;;34.52;26.72
62928;BME280;51070;52.236;-0.892;2022-07-09T08:56:19;102249.54;;;35.74;25.35
62928;BME280;51070;52.236;-0.892;2022-07-09T08:58:44;102255.23;;;36.84;24.52
62928;BME280;51070;52.236;-0.892;2022-07-09T09:01:14;102246.09;;;37.85;23.09
62928;BME280;51070;52.236;-0.892;2022-07-09T09:03:42;102249.04;;;38.77;22.00
62928;BME280;51070;52.236;-0.892;2022-07-09T09:06:09;102241.70;;;39.55;21.11
62928;BME280;51070;52.236;-0.892;2022-07-09T09:08:40;102234.77;;;39.42;20.76
62928;BME280;51070;52.236;-0.892;2022-07-09T09:11:25;102234.31;;;38.35;21.50
62928;BME280;51070;52.236;-0.892;2022-07-09T09:13:52;102237.67;;;37.14;21.62
62928;BME280;51070;52.236;-0.892;2022-07-09T09:16:19;102242.61;;;36.08;23.28
62928;BME280;51070;52.236;-0.892;2022-07-09T09:18:46;102246.90;;;35.65;24.14
62928;BME280;51070;52.236;-0.892;2022-07-09T09:21:13;102249.22;;;34.61;24.79
62928;BME280;51070;52.236;-0.892;2022-07-09T09:23:44;102244.20;;;34.15;25.46
62928;BME280;51070;52.236;-0.892;2022-07-09T09:26:18;102239.34;;;35.57;24.37
62928;BME280;51070;52.236;-0.892;2022-07-09T09:31:23;102248.68;;;37.66;22.05
62928;BME280;51070;52.236;-0.892;2022-07-09T09:33:57;102244.10;;;38.46;21.18
62928;BME280;51070;52.236;-0.892;2022-07-09T09:36:37;102241.67;;;39.25;20.54
62928;BME280;51070;52.236;-0.892;2022-07-09T09:41:41;102245.20;;;37.72;21.57
62928;BME280;51070;52.236;-0.892;2022-07-09T09:44:09;102248.38;;;36.21;22.52
62928;BME280;51070;52.236;-0.892;2022-07-09T09:46:38;102250.38;;;34.67;23.82
62928;BME280;51070;52.236;-0.892;2022-07-09T09:49:05;102254.77;;;34.33;24.48
62928;BME280;51070;52.236;-0.892;2022-07-09T09:52:04;102247.64;;;33.40;25.09
62928;BME280;51070;52.236;-0.892;2022-07-09T09:54:34;102247.84;;;33.20;26.15
62928;BME280;51070;52.236;-0.892;2022-07-09T09:57:02;102250.71;;;32.67;26.25
62928;BME280;51070;52.236;-0.892;2022-07-09T09:59:30;102248.58;;;33.92;24.82
62928;BME280;51070;52.236;-0.892;2022-07-09T10:01:56;102249.17;;;35.02;23.67
62928;BME280;51070;52.236;-0.892;2022-07-09T10:04:22;102241.61;;;35.99;23.19
62928;BME280;51070;52.236;-0.892;2022-07-09T10:06:50;102244.67;;;36.86;22.10
62928;BME280;51070;52.236;-0.892;2022-07-09T10:09:15;102244.83;;;37.51;21.21
62928;BME280;51070;52.236;-0.892;2022-07-09T10:14:07;102261.33;;;36.71;21.43
62928;BME280;51070;52.236;-0.892;2022-07-09T10:16:38;102257.48;;;37.12;21.08
62928;BME280;51070;52.236;-0.892;2022-07-09T10:19:05;102252.16;;;37.43;20.58
62928;BME280;51070;52.236;-0.892;2022-07-09T10:21:37;102250.59;;;36.66;21.14
62928;BME280;51070;52.236;-0.892;2022-07-09T10:24:05;102248.08;;;35.92;21.68
62928;BME280;51070;52.236;-0.892;2022-07-09T10:26:45;102252.66;;;35.77;21.46
62928;BME280;51070;52.236;-0.892;2022-07-09T10:29:27;102251.20;;;35.84;21.46
62928;BME280;51070;52.236;-0.892;2022-07-09T10:31:54;102247.45;;;35.91;22.13
62928;BME280;51070;52.236;-0.892;2022-07-09T10:34:47;102248.41;;;36.18;22.12
62928;BME280;51070;52.236;-0.892;2022-07-09T10:37:16;102246.52;;;35.73;22.25
62928;BME280;51070;52.236;-0.892;2022-07-09T10:39:52;102249.88;;;35.41;22.54
62928;BME280;51070;52.236;-0.892;2022-07-09T10:42:20;102249.57;;;34.86;22.95
62928;BME280;51070;52.236;-0.892;2022-07-09T10:44:48;102253.20;;;34.77;22.76
62928;BME280;51070;52.236;-0.892;2022-07-09T10:47:17;102249.16;;;34.75;23.25
62928;BME280;51070;52.236;-0.892;2022-07-09T10:49:42;102244.31;;;34.83;23.49
62928;BME280;51070;52.236;-0.892;2022-07-09T10:52:08;102245.73;;;34.87;23.58
62928;BME280;51070;52.236;-0.892;2022-07-09T10:54:45;102246.33;;;35.02;23.28
62928;BME280;51070;52.236;-0.892;2022-07-09T10:57:12;102247.34;;;34.95;23.35
62928;BME280;51070;52.236;-0.892;2022-07-09T10:59:38;102237.59;;;34.85;23.31
62928;BME280;51070;52.236;-0.892;2022-07-09T11:02:04;102232.50;;;34.58;23.56
62928;BME280;51070;52.236;-0.892;2022-07-09T11:04:31;102242.39;;;34.03;23.91
62928;BME280;51070;52.236;-0.892;2022-07-09T11:06:57;102246.84;;;33.13;24.29
62928;BME280;51070;52.236;-0.892;2022-07-09T11:09:27;102253.09;;;32.90;24.65
62928;BME280;51070;52.236;-0.892;2022-07-09T11:11:56;102247.77;;;32.84;25.48
62928;BME280;51070;52.236;-0.892;2022-07-09T11:14:22;102243.05;;;32.86;25.66
62928;BME280;51070;52.236;-0.892;2022-07-09T11:16:55;102241.71;;;32.79;25.20
62928;BME280;51070;52.236;-0.892;2022-07-09T11:19:21;102245.80;;;32.59;25.72
62928;BME280;51070;52.236;-0.892;2022-07-09T11:21:47;102246.77;;;32.37;25.04
62928;BME280;51070;52.236;-0.892;2022-07-09T11:24:20;102245.41;;;32.02;25.65
62928;BME280;51070;52.236;-0.892;2022-07-09T11:26:48;102240.23;;;31.74;26.28
62928;BME280;51070;52.236;-0.892;2022-07-09T11:29:16;102238.22;;;31.42;26.25
62928;BME280;51070;52.236;-0.892;2022-07-09T11:31:50;102240.35;;;31.13;26.55
62928;BME280;51070;52.236;-0.892;2022-07-09T11:34:16;102246.27;;;31.00;26.61
62928;BME280;51070;52.236;-0.892;2022-07-09T11:36:44;102244.48;;;30.80;26.99
62928;BME280;51070;52.236;-0.892;2022-07-09T11:41:53;102240.37;;;30.67;27.93
62928;BME280;51070;52.236;-0.892;2022-07-09T11:44:20;102242.67;;;30.68;27.79
62928;BME280;51070;52.236;-0.892;2022-07-09T11:47:08;102236.66;;;30.72;27.86
62928;BME280;51070;52.236;-0.892;2022-07-09T11:49:40;102246.16;;;30.72;27.22
62928;BME280;51070;52.236;-0.892;2022-07-09T11:52:20;102239.38;;;30.59;26.81
62928;BME280;51070;52.236;-0.892;2022-07-09T11:57:23;102227.45;;;30.16;26.85
62928;BME280;51070;52.236;-0.892;2022-07-09T11:59:49;102230.62;;;30.04;27.36
62928;BME280;51070;52.236;-0.892;2022-07-09T12:02:25;102229.08;;;30.01;27.34
62928;BME280;51070;52.236;-0.892;2022-07-09T12:04:51;102228.96;;;29.91;27.62
62928;BME280;51070;52.236;-0.892;2022-07-09T12:07:16;102224.94;;;29.88;27.27
62928;BME280;51070;52.236;-0.892;2022-07-09T12:09:42;102217.05;;;29.68;27.14
62928;BME280;51070;52.236;-0.892;2022-07-09T12:12:07;102217.23;;;29.59;27.74
62928;BME280;51070;52.236;-0.892;2022-07-09T12:14:33;102213.23;;;29.63;27.59
62928;BME280;51070;52.236;-0.892;2022-07-09T12:16:59;102211.90;;;29.59;27.67
62928;BME280;51070;52.236;-0.892;2022-07-09T12:19:24;102212.86;;;29.56;27.29
62928;BME280;51070;52.236;-0.892;2022-07-09T12:21:50;102215.48;;;29.58;26.60
62928;BME280;51070;52.236;-0.892;2022-07-09T12:24:16;102214.27;;;29.57;26.85
62928;BME280;51070;52.236;-0.892;2022-07-09T12:26:41;102218.48;;;29.59;27.06
62928;BME280;51070;52.236;-0.892;2022-07-09T12:29:07;102211.52;;;29.60;27.14
62928;BME280;51070;52.236;-0.892;2022-07-09T12:31:32;102204.47;;;29.57;27.27
62928;BME280;51070;52.236;-0.892;2022-07-09T12:34:02;102204.67;;;29.48;27.13
62928;BME280;51070;52.236;-0.892;2022-07-09T12:36:28;102205.64;;;29.37;27.44
62928;BME280;51070;52.236;-0.892;2022-07-09T12:38:54;102204.55;;;29.39;27.22
62928;BME280;51070;52.236;-0.892;2022-07-09T12:41:19;102203.47;;;29.21;27.02
62928;BME280;51070;52.236;-0.892;2022-07-09T12:43:44;102206.22;;;29.01;27.13
62928;BME280;51070;52.236;-0.892;2022-07-09T12:46:10;102204.73;;;28.78;27.94
62928;BME280;51070;52.236;-0.892;2022-07-09T12:48:35;102210.34;;;28.73;28.43
62928;BME280;51070;52.236;-0.892;2022-07-09T12:51:01;102201.93;;;28.76;28.53